Time;durP1;ratioP1;P1;durP2;ratioP2;P2;SDS_P1;SDS_P2;PMS_P1;PMS_P2;Temp;Humidity;BMP_temperature;BMP_pressure;BME280_temperature;BME280_humidity;BME280_pressure;Samples;Min_cycle;Max_cycle;Signal;HPM_P1;HPM_P2
2022/08/08 00:00:36;;;;;;;7.00;3.92;;;19.80;44.50;;;;;;5039495;28;19955;-53
2022/08/08 00:03:24;;;;;;;7.45;3.90;;;19.80;44.40;;;;;;5039575;28;20033;-56
2022/08/08 00:06:13;;;;;;;10.13;4.30;;;19.70;44.80;;;;;;5039159;28;20087;-63
2022/08/08 00:08:51;;;;;;;6.10;3.60;;;19.70;43.70;;;;;;5039140;28;20056;-55
2022/08/08 00:11:20;;;;;;;7.05;3.83;;;19.70;44.70;;;;;;5039345;28;20017;-55
2022/08/08 00:13:52;;;;;;;7.15;3.83;;;19.70;45.10;;;;;;5039029;28;20021;-55
2022/08/08 00:16:38;;;;;;;8.50;3.83;;;19.70;46.00;;;;;;5038846;28;20083;-57
2022/08/08 00:19:29;;;;;;;7.13;4.10;;;19.60;46.00;;;;;;5039422;28;20037;-57
2022/08/08 00:22:34;;;;;;;7.25;3.90;;;19.60;43.00;;;;;;5039448;28;20033;-54
2022/08/08 00:25:05;;;;;;;7.13;3.45;;;19.60;44.50;;;;;;5028093;28;20113;-55
2022/08/08 00:27:34;;;;;;;8.65;4.45;;;19.60;45.90;;;;;;5020724;28;20485;-57
2022/08/08 00:30:07;;;;;;;6.05;3.50;;;19.50;44.90;;;;;;5038995;28;20500;-55
2022/08/08 00:32:41;;;;;;;7.03;3.75;;;19.50;45.80;;;;;;5038970;28;20041;-57
2022/08/08 00:35:22;;;;;;;;;;;19.50;45.90;;;;;;5038737;28;20032;-52
2022/08/08 00:38:07;;;;;;;8.30;3.83;;;19.50;45.00;;;;;;5038754;28;19995;-57
2022/08/08 00:40:41;;;;;;;;;;;19.50;45.60;;;;;;5039270;28;20049;-56
2022/08/08 00:43:29;;;;;;;8.80;4.30;;;19.40;45.10;;;;;;5038698;28;20348;-55
2022/08/08 00:46:35;;;;;;;7.38;4.32;;;19.40;44.70;;;;;;5038401;28;20030;-55
2022/08/08 00:49:30;;;;;;;8.30;4.05;;;19.30;46.50;;;;;;5030246;28;20034;-57
2022/08/08 00:52:26;;;;;;;7.47;3.92;;;19.40;46.30;;;;;;5038551;28;20052;-55
2022/08/08 00:55:21;;;;;;;6.55;4.00;;;19.30;47.30;;;;;;5038516;28;20052;-56
2022/08/08 00:58:05;;;;;;;8.25;3.90;;;19.30;46.50;;;;;;5037121;28;20051;-56
2022/08/08 01:00:58;;;;;;;7.00;4.22;;;19.30;47.70;;;;;;5037338;28;20028;-54
2022/08/08 01:03:27;;;;;;;6.93;3.45;;;19.30;46.80;;;;;;5007554;28;20060;-56
2022/08/08 01:06:39;;;;;;;7.80;4.00;;;19.20;48.00;;;;;;5038270;28;20025;-57
2022/08/08 01:09:17;;;;;;;8.13;3.67;;;19.20;45.70;;;;;;5034004;28;20044;-57
2022/08/08 01:12:21;;;;;;;6.85;3.92;;;19.30;48.60;;;;;;5019984;28;20532;-54
2022/08/08 01:15:05;;;;;;;8.40;4.07;;;19.20;47.60;;;;;;4957845;29;20034;-54
2022/08/08 01:17:51;;;;;;;6.10;3.80;;;19.20;48.60;;;;;;5032781;28;20045;-57
2022/08/08 01:20:54;;;;;;;9.18;4.20;;;19.20;48.70;;;;;;4990938;28;20045;-61
2022/08/08 01:23:38;;;;;;;8.05;3.80;;;19.10;46.90;;;;;;5037830;28;20022;-53
2022/08/08 01:26:15;;;;;;;7.87;4.27;;;19.20;47.30;;;;;;5037753;28;20072;-59
2022/08/08 01:29:00;;;;;;;6.68;3.72;;;19.20;50.00;;;;;;5037466;28;20025;-56
2022/08/08 01:31:55;;;;;;;6.53;3.75;;;19.10;49.90;;;;;;5037805;28;20025;-59
2022/08/08 01:34:53;;;;;;;;;;;19.20;46.80;;;;;;5038267;28;20052;-59
2022/08/08 01:37:52;;;;;;;7.80;3.88;;;19.10;49.90;;;;;;4991545;28;19917;-57
2022/08/08 01:40:31;;;;;;;6.45;4.15;;;19.10;48.80;;;;;;5034538;28;20022;-59
2022/08/08 01:43:14;;;;;;;6.68;4.10;;;19.10;48.10;;;;;;5038011;28;20036;-57
2022/08/08 01:45:54;;;;;;;6.68;3.92;;;19.00;49.80;;;;;;5037679;28;20017;-56
2022/08/08 01:48:52;;;;;;;8.75;4.10;;;19.00;49.10;;;;;;5037752;28;20029;-58
2022/08/08 01:51:39;;;;;;;7.65;3.95;;;19.00;51.90;;;;;;5037487;28;20052;-59
2022/08/08 01:54:21;;;;;;;6.63;4.20;;;19.00;47.80;;;;;;5037933;28;20017;-56
2022/08/08 01:57:20;;;;;;;8.68;4.32;;;19.00;51.70;;;;;;5037632;28;20105;-59
2022/08/08 01:59:51;;;;;;;9.13;4.05;;;19.00;52.40;;;;;;5037142;28;20033;-59
2022/08/08 02:02:50;;;;;;;7.90;3.95;;;19.00;50.00;;;;;;5037549;28;20026;-59
2022/08/08 02:05:50;;;;;;;7.70;4.10;;;19.00;51.20;;;;;;5037119;28;20083;-57
2022/08/08 02:08:28;;;;;;;8.68;4.57;;;19.00;51.60;;;;;;5037214;28;20105;-58
2022/08/08 02:11:11;;;;;;;8.00;4.50;;;18.90;50.30;;;;;;5039934;28;20021;-56
2022/08/08 02:14:05;;;;;;;7.50;4.15;;;18.90;51.70;;;;;;5043636;28;20067;-57
2022/08/08 02:16:47;;;;;;;8.60;3.90;;;18.90;51.30;;;;;;5033128;28;20033;-57
2022/08/08 02:19:37;;;;;;;7.63;4.15;;;18.90;54.90;;;;;;5044047;28;20053;-57
2022/08/08 02:22:30;;;;;;;8.85;4.22;;;18.80;53.50;;;;;;5043941;28;20037;-56
2022/08/08 02:25:24;;;;;;;8.82;4.15;;;18.80;52.30;;;;;;5044055;28;20033;-57
2022/08/08 02:27:56;;;;;;;;;;;18.80;52.00;;;;;;5017480;28;20136;-57
2022/08/08 02:31:01;;;;;;;8.32;4.00;;;18.80;52.40;;;;;;5044142;28;20312;-59
2022/08/08 02:34:07;;;;;;;7.32;3.92;;;18.80;50.00;;;;;;5025918;28;20473;-56
2022/08/08 02:36:38;;;;;;;8.40;4.43;;;18.80;55.00;;;;;;5042043;28;20033;-54
2022/08/08 02:39:07;;;;;;;6.93;4.57;;;18.70;55.30;;;;;;5043243;28;20108;-59
2022/08/08 02:42:03;;;;;;;9.35;4.80;;;18.70;53.80;;;;;;5043605;28;20048;-57
2022/08/08 02:44:41;;;;;;;9.20;4.90;;;18.70;52.10;;;;;;5043536;28;20025;-57
2022/08/08 02:47:29;;;;;;;9.40;4.60;;;18.70;55.00;;;;;;5043655;28;20104;-59
2022/08/08 02:50:29;;;;;;;6.90;4.38;;;18.70;53.60;;;;;;5043755;28;20032;-60
2022/08/08 02:53:03;;;;;;;8.93;4.47;;;18.60;54.60;;;;;;5043711;28;20144;-57
2022/08/08 02:55:35;;;;;;;7.95;4.30;;;18.70;53.10;;;;;;5043345;28;20033;-56
2022/08/08 02:58:38;;;;;;;10.18;4.35;;;18.60;53.80;;;;;;5043553;28;20502;-55
2022/08/08 03:01:15;;;;;;;9.18;4.32;;;18.60;52.90;;;;;;5043672;28;20121;-55
2022/08/08 03:03:59;;;;;;;10.07;4.85;;;18.60;54.20;;;;;;5043609;28;20501;-55
2022/08/08 03:06:49;;;;;;;7.18;4.20;;;18.60;54.70;;;;;;5043347;28;20405;-57
2022/08/08 03:09:52;;;;;;;7.95;4.05;;;18.60;53.30;;;;;;5043591;28;20099;-59
2022/08/08 03:12:42;;;;;;;8.27;4.80;;;18.50;54.60;;;;;;5043519;28;20035;-58
2022/08/08 03:15:20;;;;;;;8.50;4.63;;;18.50;56.70;;;;;;5043750;28;20021;-57
2022/08/08 03:18:01;;;;;;;6.25;4.10;;;18.50;53.20;;;;;;5043081;28;20029;-55
2022/08/08 03:20:46;;;;;;;8.52;4.20;;;18.50;53.90;;;;;;5026178;28;20022;-58
2022/08/08 03:23:12;;;;;;;;;;;18.40;54.00;;;;;;5040333;28;20029;-57
2022/08/08 03:25:39;;;;;;;8.15;4.38;;;18.40;55.10;;;;;;5040316;28;19967;-58
2022/08/08 03:28:26;;;;;;;8.80;4.65;;;18.40;54.50;;;;;;5040466;28;20018;-57
2022/08/08 03:30:52;;;;;;;7.15;4.32;;;18.40;54.20;;;;;;5040245;28;20535;-56
2022/08/08 03:33:18;;;;;;;7.47;4.20;;;18.30;56.50;;;;;;5040248;28;20022;-55
2022/08/08 03:35:49;;;;;;;9.10;4.10;;;18.30;58.60;;;;;;5039842;28;20080;-59
2022/08/08 03:38:15;;;;;;;8.38;4.15;;;18.30;56.40;;;;;;5040085;28;20056;-58
2022/08/08 03:40:48;;;;;;;7.65;4.15;;;18.30;56.30;;;;;;5039769;28;20026;-53
2022/08/08 03:43:14;;;;;;;8.07;4.30;;;18.20;58.60;;;;;;5039582;28;20033;-58
2022/08/08 03:45:40;;;;;;;10.95;4.50;;;18.20;57.40;;;;;;5039652;28;20033;-58
2022/08/08 03:48:08;;;;;;;7.47;4.28;;;18.30;55.50;;;;;;5039734;28;20020;-58
2022/08/08 03:50:35;;;;;;;7.47;4.20;;;18.20;58.40;;;;;;5039662;28;20037;-54
2022/08/08 03:53:06;;;;;;;8.13;4.13;;;18.20;56.50;;;;;;5039870;28;20017;-57
2022/08/08 03:55:32;;;;;;;10.13;4.88;;;18.20;56.60;;;;;;5021538;28;20029;-58
2022/08/08 03:57:58;;;;;;;7.93;4.05;;;18.20;56.50;;;;;;5039628;28;20029;-57
2022/08/08 04:00:26;;;;;;;7.68;4.47;;;18.20;57.80;;;;;;5039898;28;20022;-59
2022/08/08 04:02:59;;;;;;;8.57;4.72;;;18.20;58.30;;;;;;5039335;28;20108;-56
2022/08/08 04:05:30;;;;;;;7.28;4.18;;;18.20;58.00;;;;;;5039489;28;20053;-64
2022/08/08 04:07:57;;;;;;;9.10;4.43;;;18.10;59.10;;;;;;5039203;28;20056;-56
2022/08/08 04:10:22;;;;;;;8.20;4.25;;;18.10;60.30;;;;;;5039448;28;20440;-59
2022/08/08 04:12:48;;;;;;;7.75;4.70;;;18.10;60.50;;;;;;5039478;28;20099;-58
2022/08/08 04:15:14;;;;;;;8.30;4.63;;;18.10;57.20;;;;;;5039161;28;20020;-63
2022/08/08 04:17:40;;;;;;;7.78;4.55;;;18.00;59.80;;;;;;5039099;28;20112;-56
2022/08/08 04:20:06;;;;;;;8.20;4.40;;;18.00;56.30;;;;;;5039056;28;20097;-57
2022/08/08 04:22:32;;;;;;;8.18;4.32;;;18.00;59.00;;;;;;5039342;28;20041;-59
2022/08/08 04:24:58;;;;;;;8.75;4.25;;;18.00;60.00;;;;;;5038962;28;20503;-67
2022/08/08 04:27:24;;;;;;;7.90;4.82;;;18.00;57.80;;;;;;5039028;28;20104;-60
2022/08/08 04:29:50;;;;;;;8.05;4.70;;;17.90;57.50;;;;;;5038542;28;20022;-57
2022/08/08 04:32:16;;;;;;;8.45;4.30;;;18.00;60.00;;;;;;5038632;28;20030;-58
2022/08/08 04:34:43;;;;;;;7.05;4.30;;;17.90;60.20;;;;;;5020660;28;20033;-57
2022/08/08 04:37:10;;;;;;;9.90;4.65;;;17.90;59.50;;;;;;5038832;28;20481;-57
2022/08/08 04:39:36;;;;;;;11.00;5.07;;;17.90;61.10;;;;;;5038910;28;20397;-56
2022/08/08 04:42:02;;;;;;;8.68;4.72;;;17.90;60.60;;;;;;5021070;28;20039;-57
2022/08/08 04:44:27;;;;;;;9.23;4.55;;;17.90;60.90;;;;;;5038856;28;20081;-57
2022/08/08 04:46:54;;;;;;;8.80;4.75;;;17.90;60.20;;;;;;5038648;28;20065;-59
2022/08/08 04:49:20;;;;;;;8.95;5.07;;;17.90;60.80;;;;;;5038841;28;20056;-57
2022/08/08 04:51:45;;;;;;;7.60;4.13;;;17.80;58.90;;;;;;5038857;28;20022;-56
2022/08/08 04:54:11;;;;;;;8.57;4.45;;;17.80;60.60;;;;;;5038381;28;20017;-53
2022/08/08 04:56:37;;;;;;;8.55;5.03;;;17.80;60.80;;;;;;5038599;28;20029;-59
2022/08/08 04:59:03;;;;;;;10.57;5.25;;;17.80;61.30;;;;;;5038441;28;20465;-58
2022/08/08 05:01:30;;;;;;;7.68;4.95;;;17.80;59.60;;;;;;5038386;28;20115;-59
2022/08/08 05:03:55;;;;;;;8.88;5.05;;;17.80;62.10;;;;;;5038489;28;20026;-57
2022/08/08 05:06:22;;;;;;;8.32;4.80;;;17.70;61.20;;;;;;5038150;28;20037;-57
2022/08/08 05:08:48;;;;;;;8.88;5.15;;;17.70;60.10;;;;;;5037862;28;20045;-54
2022/08/08 05:11:15;;;;;;;9.23;4.88;;;17.70;61.40;;;;;;5037974;28;20065;-62
2022/08/08 05:13:42;;;;;;;8.10;4.57;;;17.70;61.30;;;;;;5038288;28;20024;-59
2022/08/08 05:16:08;;;;;;;9.05;5.00;;;17.70;62.20;;;;;;5038249;28;20091;-59
2022/08/08 05:18:38;;;;;;;9.68;4.90;;;17.70;60.70;;;;;;5030737;28;20056;-56
2022/08/08 05:21:05;;;;;;;9.48;4.60;;;17.70;62.60;;;;;;5031564;28;20038;-57
2022/08/08 05:23:31;;;;;;;9.82;4.80;;;17.70;60.20;;;;;;5031434;28;20029;-59
2022/08/08 05:25:58;;;;;;;8.55;4.85;;;17.70;61.90;;;;;;5020396;28;20029;-57
2022/08/08 05:28:24;;;;;;;7.70;5.10;;;17.70;61.10;;;;;;5028493;28;20079;-57
2022/08/08 05:30:50;;;;;;;9.57;5.00;;;17.70;62.50;;;;;;5031742;28;20087;-54
2022/08/08 05:33:17;;;;;;;9.80;5.40;;;17.70;61.60;;;;;;5036966;28;20021;-58
2022/08/08 05:35:44;;;;;;;8.32;5.13;;;17.70;62.90;;;;;;5034651;28;20021;-56
2022/08/08 05:38:14;;;;;;;9.90;5.40;;;17.70;62.30;;;;;;5037016;28;20021;-58
2022/08/08 05:40:51;;;;;;;8.60;4.88;;;17.70;61.80;;;;;;5019883;28;20453;-58
2022/08/08 05:43:29;;;;;;;10.15;5.10;;;17.70;63.70;;;;;;5037763;28;20096;-57
2022/08/08 05:45:58;;;;;;;10.10;5.40;;;17.80;62.10;;;;;;5037167;28;20033;-59
2022/08/08 05:48:24;;;;;;;7.95;4.85;;;17.70;61.80;;;;;;5037718;28;20025;-55
2022/08/08 05:50:50;;;;;;;10.82;4.97;;;17.80;63.40;;;;;;5037530;28;20022;-56
2022/08/08 05:53:18;;;;;;;8.65;5.10;;;17.80;63.00;;;;;;5036932;28;20021;-57
2022/08/08 05:55:44;;;;;;;9.50;5.22;;;17.80;63.50;;;;;;5036912;28;20030;-57
2022/08/08 05:58:12;;;;;;;8.68;5.00;;;17.90;62.90;;;;;;5034183;28;20399;-57
2022/08/08 06:00:39;;;;;;;9.52;5.40;;;17.90;62.60;;;;;;5037401;28;20025;-56
2022/08/08 06:03:13;;;;;;;10.55;5.88;;;17.90;62.90;;;;;;5037530;28;20022;-57
2022/08/08 06:06:05;;;;;;;8.80;5.05;;;18.00;62.10;;;;;;5037536;28;20104;-57
2022/08/08 06:08:49;;;;;;;10.98;5.50;;;18.00;63.30;;;;;;5034314;28;20073;-56
2022/08/08 06:11:15;;;;;;;8.63;5.25;;;18.00;61.90;;;;;;5035092;28;20026;-56
2022/08/08 06:13:41;;;;;;;11.50;5.68;;;18.10;63.30;;;;;;5036610;28;20021;-62
2022/08/08 06:16:13;;;;;;;8.27;5.18;;;18.10;63.80;;;;;;5019305;28;20072;-57
2022/08/08 06:18:40;;;;;;;11.70;5.38;;;18.10;61.80;;;;;;5025147;28;20022;-58
2022/08/08 06:21:08;;;;;;;10.73;5.80;;;18.20;63.30;;;;;;5036945;28;20095;-56
2022/08/08 06:23:34;;;;;;;10.45;5.60;;;18.20;62.80;;;;;;5019228;28;20022;-58
2022/08/08 06:26:05;;;;;;;7.00;4.68;;;18.20;63.20;;;;;;5036743;28;20538;-56
2022/08/08 06:28:33;;;;;;;11.18;5.45;;;18.30;63.20;;;;;;5018205;28;20790;-57
2022/08/08 06:31:02;;;;;;;9.00;5.25;;;18.30;62.30;;;;;;5033790;28;20076;-58
2022/08/08 06:34:00;;;;;;;9.63;5.32;;;18.30;63.20;;;;;;5035981;28;20018;-58
2022/08/08 06:36:49;;;;;;;7.90;4.60;;;18.40;63.20;;;;;;5031623;28;20046;-58
2022/08/08 06:39:16;;;;;;;11.07;5.88;;;18.50;61.30;;;;;;5035957;28;20100;-57
2022/08/08 06:41:59;;;;;;;8.10;4.75;;;18.50;63.20;;;;;;5036715;28;20029;-58
2022/08/08 06:44:26;;;;;;;7.78;4.50;;;18.60;61.90;;;;;;5023649;28;20048;-57
2022/08/08 06:46:55;;;;;;;8.82;4.93;;;18.60;63.40;;;;;;5035750;28;20033;-54
2022/08/08 06:49:21;;;;;;;9.82;5.50;;;18.70;63.30;;;;;;5035866;28;20044;-55
2022/08/08 06:51:47;;;;;;;9.13;4.97;;;18.70;62.20;;;;;;5036535;28;20043;-55
2022/08/08 06:54:14;;;;;;;10.30;4.57;;;18.80;62.50;;;;;;5036459;28;20021;-57
2022/08/08 06:56:42;;;;;;;9.18;5.00;;;18.80;62.30;;;;;;5019244;28;20053;-57
2022/08/08 06:59:09;;;;;;;9.25;5.50;;;18.90;63.10;;;;;;5039791;28;20473;-57
2022/08/08 07:01:50;;;;;;;9.23;4.90;;;19.00;62.50;;;;;;5039954;28;20542;-59
2022/08/08 07:04:32;;;;;;;9.07;4.50;;;19.00;61.20;;;;;;5022468;28;20120;-56
2022/08/08 07:07:01;;;;;;;8.75;4.93;;;19.10;61.50;;;;;;5039931;28;20097;-55
2022/08/08 07:10:04;;;;;;;9.80;5.03;;;19.20;61.30;;;;;;5039862;28;20476;-55
2022/08/08 07:13:04;;;;;;;7.15;4.65;;;19.30;61.40;;;;;;5035497;28;20056;-57
2022/08/08 07:15:32;;;;;;;10.15;4.75;;;19.30;61.20;;;;;;5038492;28;20025;-56
2022/08/08 07:18:07;;;;;;;8.57;4.82;;;19.40;60.80;;;;;;5039982;28;20104;-58
2022/08/08 07:20:38;;;;;;;11.48;4.93;;;19.50;61.50;;;;;;5039714;28;20516;-54
2022/08/08 07:23:22;;;;;;;8.18;4.47;;;19.60;61.10;;;;;;5039778;28;20029;-52
2022/08/08 07:25:51;;;;;;;10.18;5.00;;;19.70;60.70;;;;;;5039768;28;20037;-55
2022/08/08 07:28:21;;;;;;;10.43;5.30;;;19.80;60.40;;;;;;5038858;28;20022;-58
2022/08/08 07:30:47;;;;;;;9.10;4.32;;;19.90;60.20;;;;;;5039409;28;20049;-56
2022/08/08 07:33:15;;;;;;;7.45;4.82;;;20.00;60.00;;;;;;5039971;28;20047;-55
2022/08/08 07:35:45;;;;;;;8.77;4.80;;;20.00;60.00;;;;;;5022033;28;20377;-57
2022/08/08 07:38:11;;;;;;;7.57;4.43;;;20.10;59.40;;;;;;5039901;28;20480;-57
2022/08/08 07:40:37;;;;;;;7.03;4.60;;;20.20;59.10;;;;;;5039670;28;20541;-56
2022/08/08 07:43:04;;;;;;;8.20;4.85;;;20.30;58.90;;;;;;5039708;28;20020;-57
2022/08/08 07:45:30;;;;;;;9.07;4.15;;;20.30;57.90;;;;;;5039757;28;20052;-54
2022/08/08 07:47:57;;;;;;;6.10;3.80;;;20.30;56.90;;;;;;5039688;28;20018;-59
2022/08/08 07:50:24;;;;;;;6.78;4.00;;;20.40;57.10;;;;;;5039792;28;20021;-56
2022/08/08 07:52:55;;;;;;;5.95;3.85;;;20.40;57.70;;;;;;5039580;28;20025;-57
2022/08/08 07:55:25;;;;;;;8.30;4.20;;;20.50;56.90;;;;;;5039659;28;20034;-57
2022/08/08 07:58:10;;;;;;;6.75;3.88;;;20.50;56.70;;;;;;5039505;28;20071;-56
2022/08/08 08:00:46;;;;;;;7.13;3.90;;;20.60;56.50;;;;;;5039516;28;20057;-53
2022/08/08 08:03:18;;;;;;;6.63;3.75;;;20.70;56.30;;;;;;5039373;28;20047;-56
2022/08/08 08:05:47;;;;;;;7.28;3.72;;;20.80;56.20;;;;;;5039431;28;20428;-57
2022/08/08 08:08:18;;;;;;;7.07;3.40;;;20.90;55.20;;;;;;5038504;28;20065;-55
2022/08/08 08:10:47;;;;;;;4.97;2.97;;;20.90;54.00;;;;;;5039398;28;20105;-55
2022/08/08 08:13:19;;;;;;;7.60;3.33;;;21.00;53.60;;;;;;5039400;28;20017;-55
2022/08/08 08:16:01;;;;;;;5.93;3.17;;;21.10;52.20;;;;;;5039197;28;20029;-53
2022/08/08 08:18:47;;;;;;;4.80;3.17;;;21.20;51.90;;;;;;5039120;28;20087;-56
2022/08/08 08:21:16;;;;;;;7.05;3.10;;;21.30;51.50;;;;;;5039103;28;20353;-57
2022/08/08 08:23:41;;;;;;;6.57;3.08;;;21.50;48.70;;;;;;5038892;28;20029;-58
2022/08/08 08:26:07;;;;;;;4.18;3.00;;;21.50;49.20;;;;;;5039073;28;20108;-54
2022/08/08 08:28:33;;;;;;;6.25;3.08;;;21.60;47.60;;;;;;5038934;28;20088;-51
2022/08/08 08:31:03;;;;;;;5.38;3.30;;;21.70;48.10;;;;;;5038705;28;20032;-55
2022/08/08 08:33:30;;;;;;;5.47;3.00;;;21.70;47.10;;;;;;5038856;28;20397;-55
2022/08/08 08:35:56;;;;;;;8.48;2.92;;;21.80;48.80;;;;;;5038644;28;20179;-57
2022/08/08 08:38:22;;;;;;;5.70;3.08;;;21.90;48.70;;;;;;5038669;28;20052;-55
2022/08/08 08:40:49;;;;;;;5.90;3.00;;;22.00;49.80;;;;;;5038870;28;20021;-58
2022/08/08 08:43:16;;;;;;;6.00;3.20;;;22.10;48.70;;;;;;5038637;28;20076;-55
2022/08/08 08:45:43;;;;;;;4.72;2.90;;;22.20;48.20;;;;;;5038943;28;20088;-54
2022/08/08 08:48:09;;;;;;;5.93;2.85;;;22.40;47.40;;;;;;5038728;28;20041;-55
2022/08/08 08:50:37;;;;;;;5.60;2.97;;;22.50;46.90;;;;;;5038788;28;20029;-52
2022/08/08 08:53:05;;;;;;;4.82;2.80;;;22.60;47.00;;;;;;5038230;28;20021;-50
2022/08/08 08:55:34;;;;;;;4.93;3.15;;;22.60;46.10;;;;;;5038230;28;20021;-52
2022/08/08 08:58:02;;;;;;;6.55;3.10;;;22.70;44.60;;;;;;5037080;28;20111;-55
2022/08/08 09:00:28;;;;;;;7.60;2.90;;;22.70;46.30;;;;;;5037634;28;20033;-53
2022/08/08 09:02:59;;;;;;;4.65;2.75;;;22.80;46.70;;;;;;5036747;28;20025;-52
2022/08/08 09:05:28;;;;;;;5.93;2.90;;;22.90;43.70;;;;;;5036324;28;20469;-59
2022/08/08 09:07:56;;;;;;;5.70;3.00;;;22.90;44.30;;;;;;5037050;28;20042;-53
2022/08/08 09:10:24;;;;;;;5.63;3.15;;;22.90;45.20;;;;;;5037560;28;20025;-55
2022/08/08 09:12:51;;;;;;;6.57;3.20;;;22.90;45.80;;;;;;5036673;28;20025;-57
2022/08/08 09:15:17;;;;;;;4.60;2.97;;;23.00;45.30;;;;;;5036964;28;20044;-58
2022/08/08 09:17:43;;;;;;;7.25;3.03;;;23.00;45.90;;;;;;5037008;28;20029;-54
2022/08/08 09:20:10;;;;;;;5.88;2.70;;;23.10;46.40;;;;;;5036095;28;20025;-52
2022/08/08 09:22:36;;;;;;;4.72;2.80;;;23.20;42.60;;;;;;5036929;28;20533;-55
2022/08/08 09:25:03;;;;;;;4.63;2.90;;;23.30;45.70;;;;;;5037819;28;20029;-56
2022/08/08 09:27:30;;;;;;;6.10;3.13;;;23.50;45.20;;;;;;5019795;28;20243;-57
2022/08/08 09:30:07;;;;;;;5.60;2.97;;;23.70;45.10;;;;;;5036492;28;20026;-58
2022/08/08 09:32:38;;;;;;;5.60;3.50;;;23.90;45.30;;;;;;5037990;28;20044;-55
2022/08/08 09:35:07;;;;;;;7.45;3.35;;;24.20;43.80;;;;;;5038082;28;20021;-57
2022/08/08 09:37:45;;;;;;;5.60;3.15;;;24.40;43.30;;;;;;5037917;28;20025;-58
2022/08/08 09:40:17;;;;;;;6.20;3.28;;;24.70;44.90;;;;;;5036074;28;20378;-58
2022/08/08 09:42:45;;;;;;;5.18;3.00;;;25.10;43.50;;;;;;5035428;28;20052;-57
2022/08/08 09:45:30;;;;;;;4.72;3.50;;;25.50;40.80;;;;;;5034797;28;20018;-58
2022/08/08 09:48:01;;;;;;;6.30;3.75;;;25.80;40.10;;;;;;5035248;28;20366;-61
2022/08/08 09:50:29;;;;;;;7.90;3.90;;;26.20;39.90;;;;;;5036140;28;20374;-58
2022/08/08 09:52:56;;;;;;;6.88;4.20;;;26.50;40.30;;;;;;5036111;28;20442;-55
2022/08/08 09:55:29;;;;;;;6.95;4.18;;;26.80;40.50;;;;;;5036722;28;20025;-58
2022/08/08 09:58:06;;;;;;;7.50;3.92;;;27.10;38.30;;;;;;5036407;28;20037;-58
2022/08/08 10:00:37;;;;;;;6.05;3.90;;;27.60;42.00;;;;;;5037137;28;20025;-57
2022/08/08 10:03:04;;;;;;;7.20;3.72;;;28.00;37.70;;;;;;5037170;28;20100;-56
2022/08/08 10:05:34;;;;;;;6.97;3.80;;;28.40;39.70;;;;;;5037156;28;20055;-53
2022/08/08 10:08:01;;;;;;;7.18;4.00;;;28.70;38.00;;;;;;5036867;28;20057;-55
2022/08/08 10:10:41;;;;;;;6.50;3.90;;;29.00;37.90;;;;;;5036936;28;20018;-55
2022/08/08 10:13:24;;;;;;;9.77;4.10;;;29.20;38.50;;;;;;5037301;28;20018;-56
2022/08/08 10:15:52;;;;;;;7.68;4.30;;;29.70;39.90;;;;;;5036908;28;20028;-56
2022/08/08 10:18:44;;;;;;;9.80;4.28;;;30.10;38.70;;;;;;5037088;28;20553;-57
2022/08/08 10:21:11;;;;;;;7.15;3.90;;;30.60;37.80;;;;;;5033302;28;20040;-56
2022/08/08 10:23:43;;;;;;;12.02;3.90;;;30.90;33.40;;;;;;5037118;28;20096;-66
2022/08/08 10:26:15;;;;;;;5.50;3.90;;;31.30;35.60;;;;;;5036987;28;20388;-58
2022/08/08 10:29:05;;;;;;;6.38;3.72;;;31.50;37.00;;;;;;5037446;28;20022;-58
2022/08/08 10:34:20;;;;;;;6.00;3.55;;;31.80;32.20;;;;;;5041088;28;20060;-63
2022/08/08 10:36:47;;;;;;;7.25;3.70;;;32.10;31.70;;;;;;5041109;28;20452;-62
2022/08/08 10:39:25;;;;;;;7.43;3.63;;;32.20;34.80;;;;;;5040861;28;20026;-57
2022/08/08 10:42:03;;;;;;;8.32;4.05;;;32.50;35.20;;;;;;5040636;28;20025;-58
2022/08/08 10:44:35;;;;;;;6.90;3.90;;;32.70;31.60;;;;;;5041053;28;20506;-58
2022/08/08 10:47:08;;;;;;;6.05;3.70;;;32.80;34.20;;;;;;5040567;28;20030;-58
2022/08/08 10:49:33;;;;;;;5.50;3.72;;;33.30;34.20;;;;;;5040256;28;20053;-57
2022/08/08 10:51:59;;;;;;;6.70;3.85;;;33.50;33.20;;;;;;5039462;28;20033;-58
2022/08/08 10:54:25;;;;;;;7.10;3.70;;;33.70;33.50;;;;;;5039587;28;20081;-56
2022/08/08 10:57:07;;;;;;;5.60;3.55;;;33.80;30.20;;;;;;5039799;28;20047;-68
2022/08/08 10:59:33;;;;;;;5.03;3.13;;;33.70;33.10;;;;;;5040263;28;20031;-59
2022/08/08 11:01:59;;;;;;;4.63;3.10;;;33.80;32.70;;;;;;5041002;28;20025;-57
2022/08/08 11:04:25;;;;;;;5.70;3.22;;;33.80;30.00;;;;;;5040708;28;20057;-58
2022/08/08 11:06:59;;;;;;;5.43;3.13;;;34.00;29.50;;;;;;5040004;28;20053;-61
2022/08/08 11:09:25;;;;;;;7.00;3.38;;;34.20;31.20;;;;;;5040621;28;20036;-58
2022/08/08 11:11:52;;;;;;;8.07;3.75;;;34.20;29.60;;;;;;5040609;28;20025;-57
2022/08/08 11:14:18;;;;;;;4.32;3.33;;;34.50;30.20;;;;;;5040414;28;20079;-59
2022/08/08 11:16:45;;;;;;;5.35;3.30;;;35.00;32.00;;;;;;5039813;28;20100;-57
2022/08/08 11:19:11;;;;;;;7.82;3.35;;;35.30;29.60;;;;;;5040225;28;20033;-58
2022/08/08 11:21:44;;;;;;;5.30;3.30;;;35.30;31.50;;;;;;5040061;28;20017;-63
2022/08/08 11:24:11;;;;;;;;;;;35.50;29.70;;;;;;5040216;28;20060;-59
2022/08/08 11:26:42;;;;;;;7.25;3.55;;;35.60;30.30;;;;;;5039826;28;19909;-58
2022/08/08 11:29:09;;;;;;;4.60;3.35;;;35.70;28.50;;;;;;5039810;28;20085;-58
2022/08/08 11:31:40;;;;;;;8.20;3.30;;;35.80;28.40;;;;;;5040105;28;20025;-58
2022/08/08 11:34:07;;;;;;;7.22;3.35;;;35.70;28.10;;;;;;5040161;28;20021;-58
2022/08/08 11:36:36;;;;;;;5.43;3.33;;;35.50;27.80;;;;;;5039669;28;20121;-57
2022/08/08 11:39:02;;;;;;;5.10;3.17;;;35.70;27.90;;;;;;5039519;28;20029;-56
2022/08/08 11:41:29;;;;;;;8.38;3.45;;;35.90;28.40;;;;;;5039736;28;20034;-57
2022/08/08 11:43:55;;;;;;;4.78;3.42;;;35.80;28.00;;;;;;5038582;28;20039;-58
2022/08/08 11:46:24;;;;;;;5.95;3.47;;;35.80;29.40;;;;;;5039834;28;20025;-60
2022/08/08 11:48:50;;;;;;;5.85;3.20;;;36.00;29.10;;;;;;5039601;28;20383;-58
2022/08/08 11:51:18;;;;;;;6.45;3.30;;;36.40;28.70;;;;;;5039855;28;20084;-58
2022/08/08 11:53:45;;;;;;;4.38;2.92;;;36.70;28.00;;;;;;5039625;28;20080;-58
2022/08/08 11:56:20;;;;;;;7.03;3.38;;;36.70;26.70;;;;;;5039429;28;20037;-58
2022/08/08 11:58:46;;;;;;;6.28;3.33;;;36.50;27.00;;;;;;5039987;28;20021;-57
2022/08/08 12:01:12;;;;;;;5.07;3.13;;;36.50;28.30;;;;;;5038801;28;20096;-58
2022/08/08 12:03:48;;;;;;;5.07;3.10;;;36.60;27.20;;;;;;5039706;28;20505;-58
2022/08/08 12:06:17;;;;;;;6.80;3.47;;;36.80;26.40;;;;;;5039688;28;20466;-57
2022/08/08 12:08:44;;;;;;;4.72;2.92;;;37.00;27.60;;;;;;5038989;28;20037;-58
2022/08/08 12:11:13;;;;;;;5.45;2.80;;;37.00;27.10;;;;;;5039262;28;20600;-58
2022/08/08 12:13:39;;;;;;;10.43;3.35;;;37.00;27.40;;;;;;5039156;28;20014;-60
2022/08/08 12:16:15;;;;;;;6.03;3.05;;;37.10;26.90;;;;;;5020843;28;20025;-58
2022/08/08 12:18:47;;;;;;;5.90;2.90;;;37.30;27.70;;;;;;5038182;28;20021;-59
2022/08/08 12:21:30;;;;;;;5.95;3.08;;;37.70;27.20;;;;;;5032696;28;20434;-58
2022/08/08 12:24:07;;;;;;;5.18;3.30;;;37.90;27.10;;;;;;5038531;28;20017;-58
2022/08/08 12:26:36;;;;;;;5.13;3.45;;;37.90;27.40;;;;;;5038283;28;20040;-58
2022/08/08 12:29:24;;;;;;;6.32;3.05;;;38.00;25.50;;;;;;5038828;28;20021;-58
2022/08/08 12:32:10;;;;;;;5.20;3.10;;;37.90;26.10;;;;;;5037862;28;20192;-58
2022/08/08 12:34:41;;;;;;;6.40;3.30;;;37.50;25.90;;;;;;5037749;28;20048;-58
2022/08/08 12:37:17;;;;;;;4.07;2.90;;;37.30;26.30;;;;;;5037579;28;20057;-58
2022/08/08 12:39:43;;;;;;;7.03;3.20;;;37.10;26.10;;;;;;5036474;28;20022;-58
2022/08/08 12:42:09;;;;;;;7.00;3.10;;;37.40;26.30;;;;;;5034859;28;20087;-58
2022/08/08 12:44:35;;;;;;;5.80;3.03;;;37.60;26.20;;;;;;5036021;28;20025;-59
2022/08/08 12:47:03;;;;;;;5.93;3.10;;;37.90;25.30;;;;;;5036400;28;20034;-58
2022/08/08 12:49:31;;;;;;;9.73;3.22;;;38.00;26.00;;;;;;5036606;28;20113;-58
2022/08/08 12:51:58;;;;;;;6.35;3.30;;;38.10;25.00;;;;;;5035706;28;20026;-58
2022/08/08 12:54:31;;;;;;;7.03;3.00;;;38.30;25.10;;;;;;5037228;28;20484;-58
2022/08/08 12:56:57;;;;;;;4.10;2.95;;;38.50;26.00;;;;;;5038338;28;20101;-59
2022/08/08 12:59:28;;;;;;;6.55;2.83;;;38.70;26.30;;;;;;5038320;28;20029;-60
2022/08/08 13:01:57;;;;;;;5.30;2.90;;;38.80;25.10;;;;;;5038420;28;20029;-59
2022/08/08 13:04:33;;;;;;;6.65;2.90;;;38.90;24.80;;;;;;5038374;28;20472;-59
2022/08/08 13:07:08;;;;;;;3.85;2.65;;;38.80;25.30;;;;;;5037992;28;20583;-57
2022/08/08 13:09:41;;;;;;;5.00;2.40;;;38.80;24.90;;;;;;5038019;28;20025;-59
2022/08/08 13:12:17;;;;;;;;;;;38.90;24.80;;;;;;5038524;28;20075;-59
2022/08/08 13:14:46;;;;;;;7.75;2.50;;;39.20;24.20;;;;;;5037405;28;19905;-57
2022/08/08 13:17:13;;;;;;;4.50;2.50;;;38.90;23.40;;;;;;5034753;28;20101;-57
2022/08/08 13:19:39;;;;;;;5.78;2.63;;;38.60;23.20;;;;;;5037224;28;20047;-56
2022/08/08 13:22:06;;;;;;;5.25;2.40;;;38.20;24.20;;;;;;5045179;28;20037;-58
2022/08/08 13:24:36;;;;;;;3.42;2.50;;;38.20;23.90;;;;;;5048226;28;20045;-55